Terminal Aerodrome Forecast
Issued by NWS Cleveland, OH

Home | Current Version | Previous Version | Graphics & Text | Print | Product List | Glossary Off
Versions: 1 2 3 4 5 6 7 8 9 10 11 12 13 14 15 16

000
FTUS41 KCLE 271700
TAFTOL
TAF
KTOL 271738Z 2718/2818 32008KT P6SM OVC040
     FM272000 30012KT P6SM OVC035
      TEMPO 2720/2723 3SM -SHSN OVC020
     FM280300 30008KT P6SM OVC040
     FM280600 27006KT P6SM SCT035
     FM281200 22006KT P6SM BKN200=

USA.gov is the U.S. government's official web portal to all federal, state and local government web resources and services.